logo tempoitalia

Diretta Meteo Orange, Franciasabato 21 maggio ore 17:30

Mappa
Sereno 33 °C Sereno 24 Ore: T.min 13 T.max 33
Ponente Sud-Ovest Km/h 9.3 Punto di rugiada: 11 °C Umidità: 26% Visibilità: 10 Km
Il sole sorge alle: 06:06 Il sole tramonta alle: 21:08
21 Maggio 2022 17:30 tempo osservato: Sereno Sereno 33 26 1017 vento: Nord SO 9.3
21 Maggio 2022 17:00 tempo osservato: Sereno Sereno 33 27 1017 vento: Nord N 5.5
21 Maggio 2022 16:30 tempo osservato: Sereno Sereno 33 29 1018 vento: Nord N 3.7
21 Maggio 2022 16:00 tempo osservato: Sereno Sereno 33 29 1018 vento: Nord N 5.5
21 Maggio 2022 15:30 tempo osservato: Sereno Sereno 32 29 1018 vento: Nord N 5.5
21 Maggio 2022 15:00 tempo osservato: Sereno Sereno 31 31 1019 vento: Nord N 5.5
21 Maggio 2022 14:30 tempo osservato: Sereno Sereno 30 40 1019 vento: Nord N 5.5
21 Maggio 2022 14:00 tempo osservato: Sereno Sereno 30 42 1019 vento: Nord N 5.5
21 Maggio 2022 13:30 tempo osservato: Sereno Sereno 30 37 1020 vento: Nord N 5.5
21 Maggio 2022 13:00 tempo osservato: Sereno Sereno 29 37 1020 vento: Nord O/SO 7.4
21 Maggio 2022 12:30 tempo osservato: Sereno Sereno 29 37 1020 vento: Nord N 5.5
21 Maggio 2022 12:00 tempo osservato: Sereno Sereno 28 42 1020 vento: Nord N 3.7
21 Maggio 2022 11:30 tempo osservato: Sereno Sereno 27 42 1021 vento: Nord N 5.5
21 Maggio 2022 11:00 tempo osservato: Sereno Sereno 26 44 1021 vento: Nord N 3.7
21 Maggio 2022 10:30 tempo osservato: Sereno Sereno 25 47 1021 vento: Nord N 3.7
21 Maggio 2022 10:00 tempo osservato: Sereno Sereno 24 53 1022 vento: Nord N 3.7
21 Maggio 2022 09:30 tempo osservato: Sereno Sereno 22 56 1022 vento: Nord N 3.7
21 Maggio 2022 09:00 tempo osservato: Sereno Sereno 21 60 1022 vento: Nord N 3.7
21 Maggio 2022 08:30 tempo osservato: Sereno Sereno 20 64 1022 vento: Nord N 1.8
21 Maggio 2022 08:00 tempo osservato: Sereno Sereno 19 68 1022 vento: Nord N 0
21 Maggio 2022 07:30 tempo osservato: Sereno Sereno 17 77 1022 vento: Nord N 0
21 Maggio 2022 07:00 tempo osservato: Sereno Sereno 14 82 1022 vento: Nord N 0
21 Maggio 2022 06:30 tempo osservato: Sereno Sereno 13 81 1022 vento: Nord N 3.7
21 Maggio 2022 06:00 tempo osservato: Sereno Sereno 13 81 1022 vento: Nord N 0
21 Maggio 2022 05:30 tempo osservato: Sereno Sereno 14 82 1022 vento: Nord N 0
21 Maggio 2022 05:00 tempo osservato: Sereno Sereno 14 76 1023 vento: Nord N 0
21 Maggio 2022 04:30 tempo osservato: Sereno Sereno 14 82 1023 vento: Nord N 5.5
21 Maggio 2022 04:00 tempo osservato: Sereno Sereno 14 76 1023 vento: Nord N 5.5
21 Maggio 2022 03:30 tempo osservato: Sereno Sereno 15 76 1023 vento: Nord N 5.5
21 Maggio 2022 03:00 tempo osservato: Sereno Sereno 15 76 1023 vento: Nord N 0
21 Maggio 2022 02:30 tempo osservato: Sereno Sereno 16 72 1024 vento: Nord N 0
21 Maggio 2022 02:00 tempo osservato: Sereno Sereno 17 67 1024 vento: Nord N 3.7
21 Maggio 2022 01:30 tempo osservato: Sereno Sereno 17 67 1024 vento: Nord N 5.5
21 Maggio 2022 01:00 tempo osservato: Sereno Sereno 17 72 1024 vento: Nord N 3.7
21 Maggio 2022 00:30 tempo osservato: Sereno Sereno 18 63 1024 vento: Nord N 0
21 Maggio 2022 00:00 tempo osservato: Sereno Sereno 18 63 1024 vento: Nord E/NE 7.4
20 Maggio 2022 23:30 tempo osservato: Sereno Sereno 19 59 1025 vento: Nord N 0
20 Maggio 2022 23:00 tempo osservato: Sereno Sereno 18 63 1025 vento: Nord N 5.5
20 Maggio 2022 22:30 tempo osservato: Sereno Sereno 20 59 1025 vento: Nord N 5.5
20 Maggio 2022 22:00 tempo osservato: Sereno Sereno 22 53 1024 vento: Nord N 5.5
20 Maggio 2022 21:30 tempo osservato: Sereno Sereno 23 49 1024 vento: Nord N 3.7
20 Maggio 2022 21:00 tempo osservato: Sereno Sereno 24 47 1024 vento: Nord N 3.7
20 Maggio 2022 20:30 tempo osservato: Sereno Sereno 25 41 1024 vento: Nord N 5.5
20 Maggio 2022 20:00 tempo osservato: Sereno Sereno 26 39 1024 vento: Nord S/SO 9.3
20 Maggio 2022 19:30 tempo osservato: Sereno Sereno 27 36 1024 vento: Nord S 11.1
20 Maggio 2022 19:00 tempo osservato: Sereno Sereno 28 37 1024 vento: Nord S/SO 13